createdAt,value
2023-11-30T00:00:41.023Z,2.03
2023-11-30T00:05:43.222Z,2.03
2023-11-30T00:10:45.010Z,2.00
2023-11-30T00:15:48.053Z,2.02
2023-11-30T00:20:50.310Z,1.95
2023-11-30T00:25:52.772Z,1.96
2023-11-30T00:30:55.003Z,1.93
2023-11-30T00:35:57.069Z,1.85
2023-11-30T00:40:58.920Z,1.62
2023-11-30T00:46:07.146Z,1.54
2023-11-30T00:51:13.057Z,1.63
2023-11-30T00:56:14.755Z,1.68
2023-11-30T01:01:16.849Z,1.67
2023-11-30T01:06:19.001Z,1.64
2023-11-30T01:11:21.341Z,1.47
2023-11-30T01:16:23.186Z,1.34
2023-11-30T01:21:25.063Z,1.24
2023-11-30T01:26:26.776Z,1.34
2023-11-30T01:31:28.879Z,1.42
2023-11-30T01:36:30.718Z,1.31
2023-11-30T01:41:32.471Z,1.29
2023-11-30T01:46:37.568Z,1.42
2023-11-30T01:51:39.590Z,1.39
2023-11-30T01:56:43.216Z,1.31
2023-11-30T02:01:45.232Z,1.30
2023-11-30T02:06:47.598Z,1.33
2023-11-30T02:11:49.495Z,1.33
2023-11-30T02:16:51.345Z,1.23
2023-11-30T02:21:53.331Z,1.22
2023-11-30T02:26:55.224Z,1.29
2023-11-30T02:31:57.158Z,1.32
2023-11-30T02:36:59.967Z,1.35
2023-11-30T02:42:01.634Z,1.40
2023-11-30T02:47:03.637Z,1.44
2023-11-30T02:52:05.649Z,1.47
2023-11-30T02:57:07.886Z,1.45
2023-11-30T03:02:10.039Z,1.44
2023-11-30T03:07:12.113Z,1.46
2023-11-30T03:12:18.286Z,1.42
2023-11-30T03:17:20.818Z,1.39
2023-11-30T03:22:22.586Z,1.32
2023-11-30T03:27:24.647Z,1.33
2023-11-30T03:32:26.684Z,1.27
2023-11-30T03:37:28.894Z,1.17
2023-11-30T03:42:30.990Z,1.16
2023-11-30T03:47:32.789Z,1.17
2023-11-30T03:52:35.387Z,1.13
2023-11-30T03:57:37.444Z,1.10
2023-11-30T04:02:39.754Z,1.11
2023-11-30T04:07:41.544Z,1.08
2023-11-30T04:12:43.960Z,1.08
2023-11-30T04:17:45.584Z,1.08
2023-11-30T04:22:47.418Z,1.09
2023-11-30T04:27:49.211Z,1.09
2023-11-30T04:32:50.969Z,1.00
2023-11-30T04:37:53.106Z,0.97
2023-11-30T04:42:56.867Z,1.00
2023-11-30T04:47:59.092Z,1.02
2023-11-30T04:53:01.509Z,1.04
2023-11-30T04:58:03.218Z,1.08
2023-11-30T05:03:05.329Z,1.10
2023-11-30T05:08:07.194Z,1.10
2023-11-30T05:13:09.290Z,1.12
2023-11-30T05:18:11.216Z,1.12
2023-11-30T05:23:13.092Z,1.12
2023-11-30T05:28:14.871Z,1.08
2023-11-30T05:33:17.665Z,1.14
2023-11-30T05:38:20.458Z,1.15
2023-11-30T05:43:22.328Z,1.15
2023-11-30T05:48:24.165Z,1.19
2023-11-30T05:53:26.706Z,1.21
2023-11-30T05:58:29.126Z,1.26
2023-11-30T06:03:31.119Z,1.25
2023-11-30T06:08:32.932Z,1.28
2023-11-30T06:13:35.584Z,1.25
2023-11-30T06:18:38.232Z,1.21
2023-11-30T06:23:40.144Z,1.23
2023-11-30T06:28:42.249Z,1.26
2023-11-30T06:33:44.400Z,1.29
2023-11-30T06:38:46.604Z,2.09
2023-11-30T06:43:48.385Z,2.53
2023-11-30T06:48:53.317Z,2.79
2023-11-30T06:53:55.143Z,2.97
2023-11-30T06:58:57.403Z,3.09
2023-11-30T07:03:59.397Z,3.18
2023-11-30T07:09:01.725Z,3.23
2023-11-30T07:14:03.664Z,3.27
2023-11-30T07:19:05.384Z,3.28
2023-11-30T07:24:10.024Z,3.36
2023-11-30T07:29:13.526Z,3.33
2023-11-30T07:34:15.338Z,3.30
2023-11-30T07:39:17.840Z,3.25
2023-11-30T07:44:19.831Z,3.10
2023-11-30T07:49:21.699Z,3.12
2023-11-30T07:54:23.766Z,3.09
2023-11-30T07:59:25.636Z,2.92
2023-11-30T08:04:27.477Z,2.96
2023-11-30T08:09:29.970Z,2.96
2023-11-30T08:14:31.973Z,2.86
2023-11-30T08:19:37.031Z,2.93
2023-11-30T08:24:39.918Z,3.06
2023-11-30T08:29:42.783Z,3.11
2023-11-30T08:34:44.550Z,3.17
2023-11-30T08:39:47.276Z,3.25
2023-11-30T08:44:49.309Z,3.31
2023-11-30T08:49:51.181Z,3.34
2023-11-30T08:54:54.270Z,3.34
2023-11-30T08:59:59.015Z,3.21
2023-11-30T09:05:00.922Z,3.23
2023-11-30T09:10:03.385Z,3.39
2023-11-30T09:15:09.955Z,3.55
2023-11-30T09:20:12.785Z,3.51
2023-11-30T09:25:14.777Z,3.63
2023-11-30T09:30:16.924Z,3.65
2023-11-30T09:35:19.368Z,3.48
2023-11-30T09:40:21.471Z,3.60
2023-11-30T09:45:25.290Z,3.74
2023-11-30T09:50:27.104Z,3.80
2023-11-30T09:55:29.695Z,3.84
2023-11-30T10:00:31.670Z,3.87
2023-11-30T10:05:33.881Z,3.90
2023-11-30T10:10:35.993Z,3.85
2023-11-30T10:15:37.778Z,3.84
2023-11-30T10:20:39.904Z,3.84
2023-11-30T10:25:42.362Z,3.95
2023-11-30T10:30:45.039Z,3.99
2023-11-30T10:35:50.474Z,4.06
2023-11-30T10:41:00.778Z,3.96
2023-11-30T10:46:08.273Z,4.03
2023-11-30T10:51:14.521Z,4.03
2023-11-30T10:56:18.726Z,4.07
2023-11-30T11:01:20.545Z,4.06
2023-11-30T11:06:26.646Z,4.05
2023-11-30T11:11:30.653Z,3.99
2023-11-30T11:16:42.548Z,4.06
2023-11-30T11:21:45.130Z,4.04
2023-11-30T11:26:49.102Z,4.04
2023-11-30T11:31:51.116Z,4.01
2023-11-30T11:36:52.855Z,3.99
2023-11-30T11:41:55.115Z,4.04
2023-11-30T11:46:56.906Z,3.81
2023-11-30T11:51:59.126Z,3.72
2023-11-30T11:57:00.890Z,3.64
2023-11-30T12:02:03.058Z,3.57
2023-11-30T12:07:16.472Z,3.42
2023-11-30T12:12:18.304Z,3.36
2023-11-30T12:17:20.255Z,3.33
2023-11-30T12:22:22.559Z,3.31
2023-11-30T12:27:24.479Z,3.26
2023-11-30T12:32:26.518Z,3.25
2023-11-30T12:37:28.282Z,3.27
2023-11-30T12:42:30.404Z,3.26
2023-11-30T12:47:33.045Z,3.30
2023-11-30T12:52:34.921Z,3.29
2023-11-30T12:57:39.767Z,3.30
2023-11-30T13:02:44.763Z,3.30
2023-11-30T13:07:47.637Z,3.24
2023-11-30T13:12:49.410Z,3.20
2023-11-30T13:17:51.213Z,3.20
2023-11-30T13:22:53.011Z,3.21
2023-11-30T13:27:54.844Z,3.19
2023-11-30T13:32:57.431Z,3.21
2023-11-30T13:37:59.368Z,3.23
2023-11-30T13:43:01.970Z,3.21
2023-11-30T13:48:03.944Z,3.17
2023-11-30T13:53:06.105Z,3.19
2023-11-30T13:58:10.882Z,3.13
2023-11-30T14:03:14.145Z,3.10
2023-11-30T14:08:17.019Z,3.11
2023-11-30T14:13:18.755Z,3.09
2023-11-30T14:18:20.743Z,3.05
2023-11-30T14:23:22.582Z,3.03
2023-11-30T14:28:26.035Z,3.03
2023-11-30T14:33:27.900Z,2.98
2023-11-30T14:38:29.711Z,2.98
2023-11-30T14:43:32.159Z,2.90
2023-11-30T14:48:34.036Z,2.87
2023-11-30T14:53:35.947Z,2.91
2023-11-30T14:58:37.785Z,2.93
2023-11-30T15:03:39.765Z,2.93
2023-11-30T15:08:41.758Z,2.97
2023-11-30T15:13:43.605Z,2.97
2023-11-30T15:18:45.376Z,2.97
2023-11-30T15:23:47.118Z,3.03
2023-11-30T15:28:48.955Z,2.98
2023-11-30T15:33:51.232Z,2.99
2023-11-30T15:38:53.177Z,2.94
2023-11-30T15:43:55.040Z,2.83
2023-11-30T15:48:56.906Z,2.79
2023-11-30T15:53:58.798Z,2.73
2023-11-30T15:59:01.037Z,2.70
2023-11-30T16:04:02.923Z,2.74
2023-11-30T16:09:05.528Z,2.68
2023-11-30T16:14:07.599Z,2.50
2023-11-30T16:19:09.982Z,2.45
2023-11-30T16:24:12.081Z,2.36
2023-11-30T16:29:13.898Z,2.40
2023-11-30T16:34:17.103Z,2.49
2023-11-30T16:39:19.154Z,2.60
2023-11-30T16:44:21.381Z,2.66
2023-11-30T16:49:23.269Z,2.67
2023-11-30T16:54:25.192Z,2.67
2023-11-30T16:59:27.489Z,2.67
2023-11-30T17:04:29.249Z,2.74
2023-11-30T17:09:31.002Z,2.92
2023-11-30T17:14:32.874Z,2.99
2023-11-30T17:19:34.605Z,2.96
2023-11-30T17:24:36.388Z,2.94
2023-11-30T17:29:39.062Z,2.90
2023-11-30T17:34:41.181Z,2.81
2023-11-30T17:39:43.062Z,2.84
2023-11-30T17:44:44.801Z,2.82
2023-11-30T17:49:46.923Z,2.79
2023-11-30T17:54:50.304Z,2.69
2023-11-30T17:59:52.233Z,2.69
2023-11-30T18:04:53.996Z,2.63
2023-11-30T18:09:56.112Z,2.50
2023-11-30T18:14:58.088Z,2.47
2023-11-30T18:20:00.486Z,2.48
2023-11-30T18:25:02.633Z,2.49
2023-11-30T18:30:05.009Z,2.50
2023-11-30T18:35:07.570Z,2.54
2023-11-30T18:40:15.019Z,2.52
2023-11-30T18:45:17.097Z,2.54
2023-11-30T18:50:19.339Z,2.53
2023-11-30T18:55:21.123Z,2.54
2023-11-30T19:00:23.355Z,2.50
2023-11-30T19:05:25.765Z,2.37
2023-11-30T19:10:27.748Z,2.26
2023-11-30T19:15:31.448Z,2.24
2023-11-30T19:20:33.628Z,2.25
2023-11-30T19:25:35.488Z,2.18
2023-11-30T19:30:38.526Z,2.30
2023-11-30T19:35:40.291Z,2.35
2023-11-30T19:40:42.164Z,2.33
2023-11-30T19:45:44.280Z,2.46
2023-11-30T19:50:46.315Z,2.47
2023-11-30T19:55:48.221Z,2.58
2023-11-30T20:00:52.672Z,2.61
2023-11-30T20:05:54.476Z,2.63
2023-11-30T20:10:56.305Z,2.66
2023-11-30T20:15:58.651Z,2.66
2023-11-30T20:21:00.593Z,2.64
2023-11-30T20:26:02.714Z,2.65
2023-11-30T20:31:04.908Z,2.66
2023-11-30T20:36:06.907Z,2.70
2023-11-30T20:41:10.252Z,2.73
2023-11-30T20:46:13.906Z,2.69
2023-11-30T20:51:19.695Z,2.65
2023-11-30T20:56:21.697Z,2.70
2023-11-30T21:01:23.827Z,2.65
2023-11-30T21:06:27.538Z,2.63
2023-11-30T21:11:29.996Z,2.71
2023-11-30T21:16:31.926Z,2.71
2023-11-30T21:21:34.307Z,2.70
2023-11-30T21:26:36.025Z,2.72
2023-11-30T21:31:41.351Z,2.70
2023-11-30T21:36:43.788Z,2.67
2023-11-30T21:41:45.711Z,2.69
2023-11-30T21:46:47.465Z,2.62
2023-11-30T21:51:49.387Z,2.67
2023-11-30T21:56:51.692Z,2.61
2023-11-30T22:01:53.698Z,2.63
2023-11-30T22:06:55.528Z,2.67
2023-11-30T22:11:58.554Z,2.63
2023-11-30T22:17:00.300Z,2.62
2023-11-30T22:22:02.330Z,2.60
2023-11-30T22:27:05.626Z,2.60
2023-11-30T22:32:08.466Z,2.67
2023-11-30T22:37:10.697Z,2.69
2023-11-30T22:42:12.496Z,2.69
2023-11-30T22:47:15.411Z,2.65
2023-11-30T22:52:17.543Z,2.67
2023-11-30T22:57:19.911Z,2.65
2023-11-30T23:02:23.586Z,2.63
2023-11-30T23:07:25.468Z,2.66
2023-11-30T23:12:27.803Z,2.74
2023-11-30T23:17:30.199Z,2.74
2023-11-30T23:22:32.059Z,2.78
2023-11-30T23:27:34.472Z,2.80
2023-11-30T23:32:36.371Z,2.80
2023-11-30T23:37:38.221Z,2.81
2023-11-30T23:42:40.543Z,2.82
2023-11-30T23:47:43.225Z,2.85
2023-11-30T23:52:45.406Z,2.82
2023-11-30T23:57:47.740Z,2.83
